Time;durP1;ratioP1;P1;durP2;ratioP2;P2;SDS_P1;SDS_P2;PMS_P1;PMS_P2;Temp;Humidity;BMP_temperature;BMP_pressure;BME280_temperature;BME280_humidity;BME280_pressure;Samples;Min_cycle;Max_cycle;Signal;HPM_P1;HPM_P2
2023/06/23 00:01:20;;;;;;;12.50;10.87;;;18.90;99.90;;;;;;5033977;28;20056;-71
2023/06/23 00:03:46;;;;;;;11.80;9.80;;;18.90;99.90;;;;;;5032988;28;20064;-72
2023/06/23 00:06:13;;;;;;;14.07;9.73;;;18.90;99.90;;;;;;5033586;28;20572;-72
2023/06/23 00:08:39;;;;;;;12.93;10.70;;;18.90;99.90;;;;;;5050067;28;20146;-72
2023/06/23 00:11:11;;;;;;;15.43;10.97;;;18.90;99.90;;;;;;5017038;28;20088;-72
2023/06/23 00:13:37;;;;;;;13.63;10.70;;;18.90;99.90;;;;;;5033361;28;20081;-72
2023/06/23 00:16:04;;;;;;;15.67;11.17;;;18.90;99.90;;;;;;5017441;28;20079;-71
2023/06/23 00:18:37;;;;;;;12.93;10.20;;;18.90;99.90;;;;;;5033063;28;20045;-72
2023/06/23 00:21:09;;;;;;;14.10;10.63;;;18.90;99.90;;;;;;5033449;28;20049;-71
2023/06/23 00:23:35;;;;;;;12.83;11.17;;;18.90;99.90;;;;;;5033027;28;20062;-71
2023/06/23 00:26:03;;;;;;;12.63;11.33;;;18.90;99.90;;;;;;5033801;28;20084;-72
2023/06/23 00:28:29;;;;;;;14.53;12.07;;;18.80;99.90;;;;;;5033209;28;20050;-72
2023/06/23 00:30:55;;;;;;;12.73;11.40;;;18.80;99.90;;;;;;5033260;28;20046;-72
2023/06/23 00:33:21;;;;;;;11.93;10.57;;;18.90;99.90;;;;;;5033157;28;20127;-72
2023/06/23 00:35:47;;;;;;;13.27;11.07;;;18.90;99.90;;;;;;5032916;28;20049;-72
2023/06/23 00:38:13;;;;;;;13.50;10.93;;;18.90;99.90;;;;;;5032652;28;20496;-72
2023/06/23 00:40:39;;;;;;;13.30;11.90;;;18.80;99.90;;;;;;5032897;28;20052;-72
2023/06/23 00:43:05;;;;;;;15.97;11.37;;;18.80;99.90;;;;;;5033087;28;20574;-72
2023/06/23 00:45:32;;;;;;;13.97;11.67;;;18.80;99.90;;;;;;5032721;28;20108;-72
2023/06/23 00:48:01;;;;;;;15.60;12.47;;;18.80;99.90;;;;;;5032546;28;20500;-72
2023/06/23 00:50:26;;;;;;;14.70;13.10;;;18.80;99.90;;;;;;5016447;28;20103;-72
2023/06/23 00:52:53;;;;;;;16.00;14.30;;;18.80;99.90;;;;;;5048957;28;20408;-73
2023/06/23 00:55:27;;;;;;;14.97;12.47;;;18.80;99.90;;;;;;5016232;28;20049;-73
2023/06/23 00:57:57;;;;;;;15.57;12.90;;;18.80;99.90;;;;;;5032301;28;20049;-73
2023/06/23 01:00:24;;;;;;;15.30;13.37;;;18.80;99.90;;;;;;5016154;28;20201;-72
2023/06/23 01:02:52;;;;;;;14.47;12.30;;;18.70;99.90;;;;;;5032014;28;20069;-72
2023/06/23 01:05:21;;;;;;;15.30;13.20;;;18.80;99.90;;;;;;5032441;28;20140;-72
2023/06/23 01:08:11;;;;;;;14.37;12.77;;;18.80;99.90;;;;;;5015975;28;20068;-72
2023/06/23 01:10:48;;;;;;;17.00;13.00;;;18.80;99.90;;;;;;5032335;28;20102;-72
2023/06/23 01:13:52;;;;;;;16.80;14.00;;;18.70;99.90;;;;;;5015700;28;20049;-73
2023/06/23 01:16:38;;;;;;;16.47;12.93;;;18.80;99.90;;;;;;5016186;28;20484;-72
2023/06/23 01:19:38;;;;;;;13.60;12.10;;;18.80;99.90;;;;;;5032523;28;20038;-72
2023/06/23 01:22:11;;;;;;;13.77;12.33;;;18.70;99.90;;;;;;5032033;28;20085;-72
2023/06/23 01:25:08;;;;;;;13.13;11.70;;;18.70;99.90;;;;;;5048394;28;20049;-73
2023/06/23 01:27:47;;;;;;;15.70;11.40;;;18.60;99.90;;;;;;5032107;28;20045;-73
2023/06/23 01:30:16;;;;;;;16.77;11.53;;;18.60;99.90;;;;;;5031860;28;20489;-73
2023/06/23 01:32:56;;;;;;;12.17;10.80;;;18.50;99.90;;;;;;5032018;28;20056;-72
2023/06/23 01:35:27;;;;;;;15.13;10.53;;;18.50;99.90;;;;;;5032322;28;20053;-72
2023/06/23 01:37:59;;;;;;;14.03;11.30;;;18.50;99.90;;;;;;5031503;28;20052;-72
2023/06/23 01:40:25;;;;;;;13.87;11.43;;;18.50;99.90;;;;;;5032076;28;20045;-72
2023/06/23 01:42:56;;;;;;;12.60;11.30;;;18.50;99.90;;;;;;5015073;28;20061;-72
2023/06/23 01:45:25;;;;;;;14.60;10.90;;;18.50;99.90;;;;;;5032283;28;20191;-72
2023/06/23 01:47:52;;;;;;;13.17;10.47;;;18.50;99.90;;;;;;5031733;28;20045;-72
2023/06/23 01:50:21;;;;;;;14.00;11.53;;;18.40;99.90;;;;;;5032104;28;20045;-72
2023/06/23 01:52:49;;;;;;;12.90;11.07;;;18.40;99.90;;;;;;5031695;28;20053;-73
2023/06/23 01:55:17;;;;;;;13.57;12.17;;;18.30;99.90;;;;;;5032698;28;20060;-72
2023/06/23 01:57:45;;;;;;;15.03;12.17;;;18.30;99.90;;;;;;5031597;28;20053;-73
2023/06/23 02:00:14;;;;;;;13.20;11.80;;;18.30;99.90;;;;;;5031972;28;20061;-72
2023/06/23 02:02:41;;;;;;;17.57;11.93;;;18.30;99.90;;;;;;5047365;28;20061;-73
2023/06/23 02:05:09;;;;;;;13.20;11.60;;;18.20;99.90;;;;;;5015168;28;20061;-73
2023/06/23 02:07:37;;;;;;;13.43;11.90;;;18.30;99.90;;;;;;5031780;28;20045;-73
2023/06/23 02:10:05;;;;;;;17.00;12.87;;;18.20;99.90;;;;;;5032668;28;20045;-73
2023/06/23 02:12:37;;;;;;;13.53;12.07;;;18.30;99.90;;;;;;5015405;28;20060;-72
2023/06/23 02:15:06;;;;;;;16.80;12.27;;;18.20;99.90;;;;;;5031882;28;20049;-73
2023/06/23 02:17:33;;;;;;;13.30;11.53;;;18.30;99.90;;;;;;5031622;28;20111;-72
2023/06/23 02:20:01;;;;;;;15.80;13.47;;;18.30;99.90;;;;;;5032297;28;20079;-72
2023/06/23 02:22:28;;;;;;;13.13;11.70;;;18.20;99.90;;;;;;5014915;28;20542;-73
2023/06/23 02:24:55;;;;;;;14.13;10.83;;;18.20;99.90;;;;;;5031460;28;20088;-73
2023/06/23 02:27:22;;;;;;;14.73;12.77;;;18.20;99.90;;;;;;5035733;28;20050;-72
2023/06/23 02:29:49;;;;;;;15.70;12.60;;;18.20;99.90;;;;;;5035345;28;20037;-73
2023/06/23 02:32:17;;;;;;;17.53;13.17;;;18.10;99.90;;;;;;5035474;28;20084;-72
2023/06/23 02:34:47;;;;;;;15.00;13.23;;;18.10;99.90;;;;;;5051325;28;20060;-73
2023/06/23 02:37:16;;;;;;;15.13;13.53;;;18.10;99.90;;;;;;5035542;28;20056;-72
2023/06/23 02:39:47;;;;;;;15.70;14.00;;;18.00;99.90;;;;;;5018759;28;20506;-73
2023/06/23 02:42:15;;;;;;;17.47;14.33;;;18.00;99.90;;;;;;5035714;28;20517;-72
2023/06/23 02:44:53;;;;;;;16.87;14.40;;;18.00;99.90;;;;;;5018557;28;20044;-73
2023/06/23 02:47:21;;;;;;;18.23;14.30;;;18.00;99.90;;;;;;5018750;28;20195;-72
2023/06/23 02:49:51;;;;;;;18.77;15.80;;;17.90;99.90;;;;;;5018658;28;20049;-72
2023/06/23 02:52:20;;;;;;;19.37;14.97;;;17.90;99.90;;;;;;5035028;28;20045;-73
2023/06/23 02:54:49;;;;;;;18.10;16.17;;;17.90;99.90;;;;;;5034593;28;20045;-72
2023/06/23 02:57:18;;;;;;;18.33;16.43;;;17.80;99.90;;;;;;5035244;28;20050;-72
2023/06/23 02:59:45;;;;;;;20.80;18.47;;;17.80;99.90;;;;;;5034589;28;20060;-73
2023/06/23 03:02:13;;;;;;;21.27;17.33;;;17.80;99.90;;;;;;5034917;28;20049;-72
2023/06/23 03:04:41;;;;;;;19.60;17.60;;;17.80;99.90;;;;;;5034688;28;20061;-72
2023/06/23 03:07:10;;;;;;;19.70;17.63;;;17.70;99.90;;;;;;5018193;28;20049;-73
2023/06/23 03:09:36;;;;;;;21.67;17.73;;;17.70;99.90;;;;;;5034846;28;20056;-72
2023/06/23 03:12:02;;;;;;;22.43;19.23;;;17.70;99.90;;;;;;5017896;28;20049;-73
2023/06/23 03:14:28;;;;;;;21.73;19.43;;;17.60;99.90;;;;;;5018121;28;20057;-72
2023/06/23 03:17:03;;;;;;;22.53;19.63;;;17.70;99.90;;;;;;5034517;28;20549;-72
2023/06/23 03:19:33;;;;;;;22.77;20.57;;;17.70;99.90;;;;;;5034600;28;20115;-72
2023/06/23 03:22:08;;;;;;;23.73;21.23;;;17.70;99.90;;;;;;5034424;28;20140;-72
2023/06/23 03:24:38;;;;;;;22.00;19.70;;;17.70;99.90;;;;;;5034652;28;20187;-72
2023/06/23 03:27:09;;;;;;;23.20;20.77;;;17.70;99.90;;;;;;5017621;28;20049;-72
2023/06/23 03:29:44;;;;;;;25.33;20.47;;;17.60;99.90;;;;;;5018154;28;20045;-72
2023/06/23 03:32:17;;;;;;;22.63;20.23;;;17.60;99.90;;;;;;5034423;28;20056;-72
2023/06/23 03:34:51;;;;;;;21.93;19.43;;;17.60;99.90;;;;;;5035461;28;20053;-72
2023/06/23 03:37:20;;;;;;;24.17;19.35;;;17.50;99.90;;;;;;5033656;28;20203;-73
2023/06/23 03:39:53;;;;;;;21.50;19.20;;;17.50;99.90;;;;;;5017767;28;20137;-73
2023/06/23 03:42:19;;;;;;;21.67;19.47;;;17.50;99.90;;;;;;5034675;28;20058;-73
2023/06/23 03:44:49;;;;;;;21.07;18.67;;;17.50;99.90;;;;;;5017787;28;20049;-72
2023/06/23 03:47:21;;;;;;;21.33;19.07;;;17.60;99.90;;;;;;5034119;28;20085;-72
2023/06/23 03:49:54;;;;;;;20.10;18.00;;;17.60;99.90;;;;;;5033879;28;20052;-73
2023/06/23 03:52:23;;;;;;;20.13;17.97;;;17.60;99.90;;;;;;5018078;28;20142;-72
2023/06/23 03:54:52;;;;;;;21.53;18.07;;;17.60;99.90;;;;;;5033657;28;20044;-74
2023/06/23 03:57:22;;;;;;;19.03;17.13;;;17.60;99.90;;;;;;5017335;28;20060;-72
2023/06/23 03:59:50;;;;;;;18.73;16.73;;;17.60;99.90;;;;;;5017399;28;20057;-72
2023/06/23 04:02:20;;;;;;;20.67;18.17;;;17.60;99.90;;;;;;5033824;28;20056;-73
2023/06/23 04:04:48;;;;;;;19.30;16.67;;;17.60;99.90;;;;;;5033512;28;20099;-73
2023/06/23 04:07:14;;;;;;;19.70;17.47;;;17.60;99.90;;;;;;5049927;28;20408;-73
2023/06/23 04:09:43;;;;;;;18.77;16.77;;;17.60;99.90;;;;;;5034595;28;20046;-73
2023/06/23 04:12:13;;;;;;;20.93;16.70;;;17.60;99.90;;;;;;5033358;28;20588;-73
2023/06/23 04:14:41;;;;;;;20.13;17.93;;;17.60;99.90;;;;;;5033398;28;20048;-73
2023/06/23 04:17:10;;;;;;;20.30;18.00;;;17.60;99.90;;;;;;5033214;28;20045;-73
2023/06/23 04:19:37;;;;;;;19.23;16.87;;;17.60;99.90;;;;;;5033275;28;20104;-73
2023/06/23 04:22:08;;;;;;;22.07;18.57;;;17.60;99.90;;;;;;5033247;28;20060;-73
2023/06/23 04:24:37;;;;;;;19.97;17.93;;;17.60;99.90;;;;;;5033469;28;20107;-73
2023/06/23 04:27:04;;;;;;;19.60;16.93;;;17.60;99.90;;;;;;5032831;28;20493;-73
2023/06/23 04:29:34;;;;;;;22.80;18.67;;;17.60;99.90;;;;;;5016370;28;20053;-73
2023/06/23 04:32:00;;;;;;;18.07;16.23;;;17.60;99.90;;;;;;5033114;28;20049;-73
2023/06/23 04:34:28;;;;;;;19.07;16.87;;;17.60;99.90;;;;;;5016819;28;20124;-73
2023/06/23 04:37:06;;;;;;;19.10;15.93;;;17.70;99.90;;;;;;4984502;28;20088;-73
2023/06/23 04:39:44;;;;;;;18.63;15.63;;;17.70;99.90;;;;;;5032922;28;20041;-73
2023/06/23 04:42:13;;;;;;;18.57;16.70;;;17.70;99.90;;;;;;5032701;28;20493;-73
2023/06/23 04:44:45;;;;;;;19.53;16.57;;;17.70;99.90;;;;;;5033153;28;20056;-73
2023/06/23 04:47:12;;;;;;;18.73;16.47;;;17.70;99.90;;;;;;5033659;28;20049;-73
2023/06/23 04:49:40;;;;;;;19.60;15.67;;;17.80;99.90;;;;;;5015773;28;20072;-73
2023/06/23 04:52:08;;;;;;;20.83;15.63;;;17.80;99.90;;;;;;5033654;28;20085;-73
2023/06/23 04:54:41;;;;;;;20.07;15.53;;;17.90;99.90;;;;;;5016314;28;20049;-73
2023/06/23 04:57:14;;;;;;;16.47;14.77;;;18.00;99.90;;;;;;5032714;28;20111;-73
2023/06/23 04:59:41;;;;;;;16.93;15.13;;;18.10;99.90;;;;;;4999926;28;20056;-73
2023/06/23 05:02:10;;;;;;;16.23;14.60;;;18.20;99.90;;;;;;4999727;28;20421;-73
2023/06/23 05:04:39;;;;;;;15.87;13.37;;;18.20;99.90;;;;;;5032245;28;20497;-72
2023/06/23 05:07:07;;;;;;;19.13;14.40;;;18.30;99.90;;;;;;5032141;28;20087;-73
2023/06/23 05:09:35;;;;;;;14.87;13.23;;;18.30;99.90;;;;;;5016415;28;20057;-73
2023/06/23 05:12:10;;;;;;;16.20;12.90;;;18.30;99.90;;;;;;5032436;28;20095;-73
2023/06/23 05:14:40;;;;;;;16.60;13.43;;;18.40;99.90;;;;;;5032475;28;20084;-73
2023/06/23 05:17:08;;;;;;;15.27;12.87;;;18.50;99.90;;;;;;5015833;28;20416;-73
2023/06/23 05:19:37;;;;;;;16.10;13.40;;;18.50;99.90;;;;;;5031907;28;20045;-73
2023/06/23 05:22:10;;;;;;;15.67;13.00;;;18.50;99.90;;;;;;5015735;28;20049;-73
2023/06/23 05:24:38;;;;;;;15.37;12.80;;;18.50;99.90;;;;;;5032710;28;20497;-73
2023/06/23 05:27:08;;;;;;;17.27;12.63;;;18.60;99.90;;;;;;5032059;28;20053;-73
2023/06/23 05:29:40;;;;;;;18.43;13.10;;;18.70;99.90;;;;;;5015905;28;20052;-72
2023/06/23 05:32:08;;;;;;;17.17;12.70;;;18.90;99.90;;;;;;5031778;28;20457;-73
2023/06/23 05:34:35;;;;;;;15.73;13.17;;;18.90;99.90;;;;;;5031999;28;20100;-73
2023/06/23 05:37:03;;;;;;;14.47;12.67;;;19.10;99.90;;;;;;4999040;28;20064;-73
2023/06/23 05:39:31;;;;;;;15.60;11.53;;;19.30;99.90;;;;;;5015287;28;20045;-72
2023/06/23 05:41:57;;;;;;;14.50;11.80;;;19.40;99.90;;;;;;5032072;28;20050;-73
2023/06/23 05:44:23;;;;;;;14.27;11.87;;;19.50;99.90;;;;;;5015357;28;20148;-73
2023/06/23 05:46:56;;;;;;;15.90;11.77;;;19.60;99.90;;;;;;4999001;28;20153;-73
2023/06/23 05:49:24;;;;;;;14.90;10.83;;;19.80;99.90;;;;;;5015399;28;20052;-73
2023/06/23 05:52:02;;;;;;;13.23;10.70;;;20.10;99.90;;;;;;5031939;28;20053;-73
2023/06/23 05:54:30;;;;;;;14.80;9.70;;;21.00;99.90;;;;;;5031966;28;20234;-73
2023/06/23 05:57:01;;;;;;;13.20;9.07;;;22.40;99.90;;;;;;5031649;28;20076;-73
2023/06/23 05:59:52;;;;;;;13.40;9.30;;;23.70;99.90;;;;;;5031571;28;20046;-72
2023/06/23 06:02:21;;;;;;;13.17;8.73;;;25.10;99.90;;;;;;5031021;28;20056;-73
2023/06/23 06:04:56;;;;;;;12.07;8.63;;;26.10;99.90;;;;;;5014924;28;20104;-72
2023/06/23 06:07:22;;;;;;;11.10;7.43;;;27.20;99.90;;;;;;5014992;28;20140;-73
2023/06/23 06:09:51;;;;;;;9.10;7.07;;;27.90;99.90;;;;;;5031553;28;20141;-72
2023/06/23 06:12:17;;;;;;;9.37;6.17;;;28.40;99.90;;;;;;5031434;28;20085;-72
2023/06/23 06:14:51;;;;;;;8.50;5.80;;;29.00;99.90;;;;;;5015180;28;20088;-72
2023/06/23 06:17:18;;;;;;;7.82;5.75;;;29.40;92.90;;;;;;5014371;28;20470;-72
2023/06/23 06:19:45;;;;;;;8.43;5.90;;;30.00;97.20;;;;;;5031354;28;20049;-72
2023/06/23 06:22:12;;;;;;;7.97;5.15;;;30.60;93.30;;;;;;5014610;28;20085;-73
2023/06/23 06:24:40;;;;;;;7.75;5.47;;;31.00;85.20;;;;;;5031658;28;20076;-73
2023/06/23 06:27:08;;;;;;;8.80;5.30;;;31.60;79.30;;;;;;4998784;28;20058;-73
2023/06/23 06:29:36;;;;;;;6.65;4.82;;;31.90;66.90;;;;;;5031587;28;20056;-73
2023/06/23 06:32:07;;;;;;;7.95;5.50;;;32.20;60.90;;;;;;5015035;28;20140;-73
2023/06/23 06:34:35;;;;;;;7.90;4.85;;;32.70;55.90;;;;;;5031142;28;20045;-73
2023/06/23 06:37:02;;;;;;;7.50;5.65;;;32.80;57.10;;;;;;5031680;28;20088;-72
2023/06/23 06:39:30;;;;;;;7.10;5.32;;;33.10;55.60;;;;;;5031753;28;20053;-72
2023/06/23 06:41:59;;;;;;;7.65;5.78;;;33.40;53.80;;;;;;5022681;28;20053;-70
2023/06/23 06:44:25;;;;;;;6.78;5.78;;;33.50;52.10;;;;;;5014140;28;20049;-72
2023/06/23 06:46:52;;;;;;;7.55;5.20;;;34.00;52.20;;;;;;5039069;28;20045;-72
2023/06/23 06:49:20;;;;;;;7.55;5.95;;;34.00;50.50;;;;;;5014428;28;20401;-72
2023/06/23 06:51:47;;;;;;;7.82;5.03;;;34.30;50.20;;;;;;5031513;28;20061;-72
2023/06/23 06:54:16;;;;;;;7.05;4.85;;;34.30;49.10;;;;;;5030899;28;20072;-72
2023/06/23 06:56:42;;;;;;;7.22;4.82;;;34.40;47.90;;;;;;4998622;28;20064;-72
2023/06/23 06:59:08;;;;;;;6.18;4.95;;;34.70;48.00;;;;;;5032150;28;20107;-74
2023/06/23 07:01:39;;;;;;;7.65;5.18;;;35.00;47.30;;;;;;5032136;28;20578;-73
2023/06/23 07:04:05;;;;;;;6.68;4.90;;;35.00;46.80;;;;;;5031000;28;20057;-73
2023/06/23 07:06:31;;;;;;;8.40;4.65;;;35.00;46.70;;;;;;5030933;28;20049;-73
2023/06/23 07:08:57;;;;;;;7.43;4.95;;;35.30;46.40;;;;;;5014648;28;20050;-72
2023/06/23 07:11:23;;;;;;;6.85;4.63;;;34.90;45.80;;;;;;5032760;28;20051;-73
2023/06/23 07:13:48;;;;;;;6.28;4.55;;;34.90;45.70;;;;;;5018465;28;20046;-73
2023/06/23 07:16:14;;;;;;;7.43;4.47;;;34.90;45.50;;;;;;5017874;28;20053;-72
2023/06/23 07:18:40;;;;;;;6.35;4.78;;;35.30;45.50;;;;;;5017924;28;20129;-73
2023/06/23 07:21:06;;;;;;;5.70;4.15;;;35.50;45.10;;;;;;5035025;28;20080;-73
2023/06/23 07:23:31;;;;;;;7.70;4.95;;;35.60;44.80;;;;;;5034498;28;20081;-73
2023/06/23 07:26:00;;;;;;;7.20;4.78;;;35.60;44.50;;;;;;5001964;28;20099;-73
2023/06/23 07:28:26;;;;;;;6.05;4.97;;;35.60;44.40;;;;;;5002344;28;20057;-73
2023/06/23 07:30:52;;;;;;;6.13;4.40;;;35.80;43.80;;;;;;5017812;28;20504;-73
2023/06/23 07:33:17;;;;;;;5.22;4.53;;;36.20;43.90;;;;;;5017545;28;20091;-73
2023/06/23 07:35:43;;;;;;;6.75;4.32;;;36.20;43.60;;;;;;5017966;28;20110;-72
2023/06/23 07:38:09;;;;;;;7.45;4.50;;;36.10;43.40;;;;;;5034116;28;20405;-73
2023/06/23 07:40:35;;;;;;;5.82;4.57;;;36.20;42.90;;;;;;5033996;28;20041;-73
2023/06/23 07:43:00;;;;;;;6.65;4.25;;;36.30;42.70;;;;;;5017638;28;20596;-72
2023/06/23 07:45:26;;;;;;;6.47;4.75;;;36.50;42.40;;;;;;5017405;28;20053;-72
2023/06/23 07:47:52;;;;;;;6.18;4.57;;;36.60;42.20;;;;;;5018034;28;20142;-71
2023/06/23 07:50:18;;;;;;;6.07;4.63;;;36.40;42.40;;;;;;5016885;28;20132;-70
2023/06/23 07:52:51;;;;;;;5.63;4.38;;;36.70;42.20;;;;;;5033567;28;20041;-70
2023/06/23 07:55:20;;;;;;;5.40;4.05;;;36.50;42.30;;;;;;5034322;28;20049;-71
2023/06/23 07:57:46;;;;;;;6.32;4.03;;;36.70;41.20;;;;;;5031918;28;20041;-70
2023/06/23 08:00:13;;;;;;;5.65;4.15;;;36.70;41.40;;;;;;5033118;28;20383;-70
2023/06/23 08:02:38;;;;;;;6.95;3.75;;;36.70;41.30;;;;;;5034165;28;20077;-72
2023/06/23 08:05:05;;;;;;;7.85;4.95;;;37.00;41.20;;;;;;5034127;28;20093;-70
2023/06/23 08:07:30;;;;;;;4.97;4.07;;;37.00;40.90;;;;;;5016911;28;20049;-70
2023/06/23 08:09:56;;;;;;;5.95;4.25;;;37.20;40.80;;;;;;5050346;28;20056;-72
2023/06/23 08:12:21;;;;;;;5.68;4.43;;;37.20;40.20;;;;;;5050007;28;20085;-71
2023/06/23 08:14:47;;;;;;;7.68;4.65;;;37.10;40.20;;;;;;5050181;28;20053;-72
2023/06/23 08:17:13;;;;;;;5.88;4.93;;;36.80;40.40;;;;;;5050445;28;20038;-72
2023/06/23 08:19:39;;;;;;;7.63;4.55;;;36.80;40.90;;;;;;5049500;28;20511;-72
2023/06/23 08:22:05;;;;;;;7.95;4.20;;;36.80;41.00;;;;;;5033125;28;20048;-71
2023/06/23 08:24:30;;;;;;;5.93;4.15;;;36.70;40.70;;;;;;5034228;28;20045;-75
2023/06/23 08:26:56;;;;;;;5.65;4.05;;;36.90;40.40;;;;;;5034411;28;20378;-74
2023/06/23 08:29:21;;;;;;;6.15;3.60;;;36.80;40.30;;;;;;5016624;28;20060;-73
2023/06/23 08:31:47;;;;;;;5.85;4.18;;;36.80;40.00;;;;;;5033542;28;20053;-72
2023/06/23 08:34:13;;;;;;;6.18;3.90;;;36.80;39.50;;;;;;5016811;28;20045;-72
2023/06/23 08:36:39;;;;;;;5.40;4.13;;;36.90;39.30;;;;;;5032802;28;20401;-72
2023/06/23 08:39:05;;;;;;;5.85;4.05;;;36.80;39.10;;;;;;5033042;28;20052;-73
2023/06/23 08:41:34;;;;;;;5.85;4.07;;;36.70;39.20;;;;;;5032895;28;20052;-72
2023/06/23 08:44:03;;;;;;;7.00;4.20;;;36.70;39.30;;;;;;5033093;28;20049;-72
2023/06/23 08:46:34;;;;;;;5.68;5.07;;;36.60;39.90;;;;;;5033117;28;20118;-72
2023/06/23 08:49:08;;;;;;;6.15;4.78;;;36.60;40.00;;;;;;5033253;28;20405;-72
2023/06/23 08:51:34;;;;;;;6.05;4.70;;;36.50;40.00;;;;;;5033983;28;20136;-71
2023/06/23 08:54:01;;;;;;;6.10;3.88;;;36.20;40.50;;;;;;5033858;28;20115;-71
2023/06/23 08:56:27;;;;;;;6.93;4.13;;;35.80;41.10;;;;;;5033490;28;20045;-72
2023/06/23 08:58:53;;;;;;;5.35;3.65;;;34.90;41.90;;;;;;5015721;28;20137;-71
2023/06/23 09:01:18;;;;;;;4.90;3.40;;;34.30;42.20;;;;;;5034040;28;20124;-71
2023/06/23 09:03:44;;;;;;;5.90;3.80;;;33.50;42.70;;;;;;5032254;28;20058;-71
2023/06/23 09:06:11;;;;;;;5.95;3.80;;;32.80;43.20;;;;;;5032567;28;20053;-71
2023/06/23 09:08:37;;;;;;;6.38;3.70;;;32.50;43.70;;;;;;5015940;28;20140;-71
2023/06/23 09:11:02;;;;;;;7.82;3.40;;;32.10;44.50;;;;;;5033437;28;20467;-71
2023/06/23 09:13:44;;;;;;;5.57;3.30;;;31.90;45.40;;;;;;5032435;28;20446;-71
2023/06/23 09:16:10;;;;;;;6.20;3.45;;;31.60;46.40;;;;;;5029585;28;20081;-71
2023/06/23 09:18:40;;;;;;;5.90;3.28;;;31.60;45.90;;;;;;5032078;28;20069;-72
2023/06/23 09:21:08;;;;;;;5.97;3.35;;;31.20;46.50;;;;;;5000180;28;20062;-71
2023/06/23 09:23:34;;;;;;;5.13;3.38;;;30.80;47.00;;;;;;5015628;28;20053;-72
2023/06/23 09:26:06;;;;;;;5.35;3.83;;;30.30;47.60;;;;;;5033401;28;20053;-72
2023/06/23 09:28:36;;;;;;;7.78;3.30;;;30.30;48.00;;;;;;5032268;28;20042;-71
2023/06/23 09:31:23;;;;;;;6.22;3.50;;;30.20;48.50;;;;;;5032246;28;20049;-72
2023/06/23 09:33:53;;;;;;;6.78;3.75;;;29.90;49.50;;;;;;5014874;28;20511;-72
2023/06/23 09:36:19;;;;;;;6.50;3.85;;;29.80;49.00;;;;;;5032029;28;20085;-72
2023/06/23 09:38:45;;;;;;;5.78;3.60;;;29.70;49.00;;;;;;5031394;28;20061;-72
2023/06/23 09:41:16;;;;;;;6.32;3.65;;;29.60;49.50;;;;;;5033046;28;20465;-71
2023/06/23 09:43:50;;;;;;;6.57;3.35;;;29.60;49.90;;;;;;5032396;28;20058;-72
2023/06/23 09:46:17;;;;;;;6.05;3.88;;;29.60;49.90;;;;;;5032081;28;20141;-72
2023/06/23 09:48:45;;;;;;;5.30;3.60;;;29.50;50.40;;;;;;5031441;28;20085;-72
2023/06/23 09:51:11;;;;;;;7.55;3.38;;;29.20;50.80;;;;;;5031697;28;20049;-72
2023/06/23 09:53:39;;;;;;;5.93;3.50;;;29.30;51.10;;;;;;5031382;28;20405;-72
2023/06/23 09:56:07;;;;;;;6.05;3.92;;;29.20;50.60;;;;;;5031693;28;20074;-72
2023/06/23 09:58:38;;;;;;;4.22;2.95;;;29.20;50.60;;;;;;5031339;28;20055;-68
2023/06/23 10:01:07;;;;;;;5.20;3.42;;;28.90;50.00;;;;;;5031352;28;20573;-69
2023/06/23 10:03:42;;;;;;;7.43;4.13;;;28.80;50.10;;;;;;5032248;28;20069;-71
2023/06/23 10:06:08;;;;;;;4.93;3.42;;;28.60;50.70;;;;;;5032847;28;20107;-72
2023/06/23 10:08:40;;;;;;;7.28;3.25;;;28.50;50.80;;;;;;4998319;28;20101;-71
2023/06/23 10:11:09;;;;;;;5.43;3.47;;;28.50;51.30;;;;;;5031390;28;20049;-71
2023/06/23 10:13:35;;;;;;;4.68;3.08;;;28.40;51.10;;;;;;5032162;28;20052;-71
2023/06/23 10:16:02;;;;;;;7.47;4.00;;;28.40;51.00;;;;;;5032611;28;20193;-71
2023/06/23 10:18:28;;;;;;;6.35;3.80;;;28.40;51.30;;;;;;5031631;28;20045;-71
2023/06/23 10:20:54;;;;;;;5.82;4.25;;;28.30;51.30;;;;;;5032331;28;20050;-71
2023/06/23 10:23:22;;;;;;;5.45;3.90;;;28.20;51.40;;;;;;5015024;28;20048;-71
2023/06/23 10:25:54;;;;;;;5.55;3.63;;;28.00;51.40;;;;;;5030969;28;20046;-72
2023/06/23 10:28:22;;;;;;;6.68;3.88;;;28.00;51.30;;;;;;5032161;28;20055;-74
2023/06/23 10:30:49;;;;;;;7.30;3.58;;;28.00;51.50;;;;;;5032301;28;20053;-72
2023/06/23 10:33:20;;;;;;;7.20;3.63;;;27.90;51.20;;;;;;5030844;28;20146;-73
2023/06/23 10:35:52;;;;;;;5.25;3.17;;;27.80;51.30;;;;;;5014618;28;20117;-72
2023/06/23 10:38:22;;;;;;;4.55;3.17;;;27.80;50.90;;;;;;5031090;28;20053;-72
2023/06/23 10:40:54;;;;;;;6.47;3.78;;;27.70;50.20;;;;;;5030764;28;20067;-72
2023/06/23 10:43:22;;;;;;;6.30;3.42;;;27.50;49.90;;;;;;5031528;28;20049;-72
2023/06/23 10:45:49;;;;;;;4.88;3.20;;;27.40;50.30;;;;;;5032209;28;20057;-73
2023/06/23 10:48:15;;;;;;;4.85;3.22;;;27.30;50.60;;;;;;4986607;28;20096;-72
2023/06/23 10:50:41;;;;;;;5.88;3.60;;;27.10;50.90;;;;;;5018515;28;20075;-74
2023/06/23 10:53:10;;;;;;;5.90;3.50;;;27.00;51.10;;;;;;5036017;28;20061;-82
2023/06/23 10:55:41;;;;;;;6.28;3.67;;;26.90;51.70;;;;;;5034710;28;20053;-68
2023/06/23 10:58:17;;;;;;;6.10;3.63;;;26.80;52.00;;;;;;5036252;28;20052;-72
2023/06/23 11:01:00;;;;;;;7.45;3.67;;;26.60;51.70;;;;;;5035650;28;20057;-70
2023/06/23 11:03:33;;;;;;;6.40;4.15;;;26.60;52.20;;;;;;5036099;28;20061;-69
2023/06/23 11:06:03;;;;;;;5.72;3.80;;;26.50;52.50;;;;;;5035842;28;20042;-71
2023/06/23 11:08:33;;;;;;;7.63;3.53;;;26.50;52.90;;;;;;5034791;28;20071;-70
2023/06/23 11:11:03;;;;;;;5.70;3.28;;;26.50;52.70;;;;;;5017863;28;20072;-72
2023/06/23 11:13:41;;;;;;;6.50;3.60;;;26.40;52.30;;;;;;5034112;28;20045;-71
2023/06/23 11:16:15;;;;;;;7.28;3.85;;;26.40;53.90;;;;;;5035407;28;20103;-72
2023/06/23 11:18:52;;;;;;;6.40;3.17;;;26.30;54.40;;;;;;5035541;28;20041;-72
2023/06/23 11:21:27;;;;;;;7.27;3.63;;;26.40;54.10;;;;;;5035875;28;20099;-72
2023/06/23 11:24:17;;;;;;;8.20;3.83;;;26.40;53.50;;;;;;5035205;28;20180;-72
2023/06/23 11:26:48;;;;;;;5.10;3.03;;;26.30;54.50;;;;;;5033934;28;20390;-72
2023/06/23 11:29:22;;;;;;;6.77;3.00;;;26.30;53.20;;;;;;5035577;28;20049;-71
2023/06/23 11:32:07;;;;;;;4.90;2.80;;;26.20;53.50;;;;;;5035150;28;20234;-72
2023/06/23 11:34:53;;;;;;;5.73;3.10;;;26.20;51.30;;;;;;5017894;28;20284;-72
2023/06/23 11:37:21;;;;;;;4.83;2.57;;;26.10;50.00;;;;;;5034584;28;20367;-72
2023/06/23 11:39:48;;;;;;;7.43;2.97;;;26.10;50.30;;;;;;5017394;28;20049;-71
2023/06/23 11:42:14;;;;;;;5.20;2.70;;;26.00;49.70;;;;;;5034371;28;20405;-72
2023/06/23 11:44:39;;;;;;;4.90;3.03;;;26.00;49.20;;;;;;5034030;28;20053;-72
2023/06/23 11:47:05;;;;;;;6.73;3.53;;;26.00;49.80;;;;;;5033856;28;20041;-72
2023/06/23 11:49:31;;;;;;;6.63;3.10;;;26.00;50.60;;;;;;5034902;28;20510;-71
2023/06/23 11:52:04;;;;;;;4.07;2.77;;;26.00;51.20;;;;;;5034858;28;20053;-72
2023/06/23 11:54:32;;;;;;;5.17;3.20;;;26.00;51.10;;;;;;5034990;28;20409;-71
2023/06/23 11:57:05;;;;;;;5.47;3.13;;;26.00;51.00;;;;;;5033325;28;20060;-72
2023/06/23 11:59:38;;;;;;;5.43;2.90;;;26.00;51.00;;;;;;5034926;28;20132;-72
2023/06/23 12:02:05;;;;;;;5.67;3.10;;;25.90;50.40;;;;;;5034594;28;20041;-71
2023/06/23 12:04:32;;;;;;;5.23;3.13;;;25.90;50.70;;;;;;5034819;28;20049;-72
2023/06/23 12:06:59;;;;;;;4.77;2.30;;;25.90;50.40;;;;;;5017003;28;20098;-72
2023/06/23 12:09:29;;;;;;;6.53;3.23;;;25.80;50.40;;;;;;5033816;28;20072;-71
2023/06/23 12:11:55;;;;;;;5.47;3.20;;;25.90;50.80;;;;;;5033474;28;20051;-72
2023/06/23 12:14:33;;;;;;;6.33;3.03;;;25.80;50.60;;;;;;5034683;28;20066;-72
2023/06/23 12:17:09;;;;;;;6.57;2.70;;;25.80;50.50;;;;;;5033175;28;20056;-72
2023/06/23 12:19:36;;;;;;;4.90;2.70;;;25.80;50.90;;;;;;5034561;28;20050;-71
2023/06/23 12:22:02;;;;;;;6.87;3.40;;;25.80;50.90;;;;;;5016745;28;20402;-72
2023/06/23 12:24:34;;;;;;;5.50;2.50;;;25.90;51.20;;;;;;5034371;28;20049;-72
2023/06/23 12:27:00;;;;;;;5.00;2.73;;;25.80;49.70;;;;;;5034060;28;20049;-72
2023/06/23 12:29:31;;;;;;;5.00;2.03;;;25.70;50.50;;;;;;5033127;28;20052;-72
2023/06/23 12:32:02;;;;;;;6.70;3.43;;;25.60;50.70;;;;;;5034103;28;20053;-74
2023/06/23 12:34:44;;;;;;;6.17;2.80;;;25.60;51.10;;;;;;5033489;28;20450;-73
2023/06/23 12:37:12;;;;;;;6.87;3.00;;;25.70;51.60;;;;;;5034026;28;20412;-74
2023/06/23 12:39:38;;;;;;;5.13;2.73;;;25.70;51.80;;;;;;5033973;28;20041;-70
2023/06/23 12:42:06;;;;;;;4.53;2.60;;;25.70;52.00;;;;;;5032557;28;20107;-70
2023/06/23 12:44:32;;;;;;;5.97;2.50;;;25.70;51.90;;;;;;5034231;28;20117;-69
2023/06/23 12:47:01;;;;;;;7.03;2.60;;;25.60;51.70;;;;;;5033832;28;20050;-74
2023/06/23 12:49:31;;;;;;;8.17;2.77;;;25.50;51.70;;;;;;5033036;28;20103;-72